Terminal Aerodrome Forecast
Issued by NWS Pocatello, ID

Home | Current Version | Previous Version | Text Only | Print | Product List | Glossary On
Versions: 1 2 3 4 5 6 7 8 9 10 11 12 13 14 15 16 17 18 19 20 21 22 23 24 25 26 27 28 29
999
FTUS45 KPIH 060520
TAFPIH
TAF
KPIH 060520Z 0606/0706 VRB05KT P6SM FEW040
     FM061300 VRB06KT P6SM SCT020 BKN040
     FM062300 VRB06KT 6SM -SN OVC020
     FM070200 25007KT 3SM -SN OVC015=

USA.gov is the U.S. government's official web portal to all federal, state and local government web resources and services.